Řízení letového provozu České republiky
Letiste: LKTB Aktualizace: 12.11.2018 19:31:07  UTC
 METAR LKTB 12.11. 19:30 ...
METAR LKTB 121930Z 09006KT CAVOK 10/07 Q1023 NOSIG RMK REG QNH 1018=
 TAF LKTB 12.11. 17:00 ...
TAF LKTB 121700Z 1218/1400 12008KT 9999 BKN030      TEMPO 1221/1308 3500 BR BKN010      BECMG 1312/1315 27008KT      BECMG 1317/1319 34010KT SCT025=